Bovington Camp, United Kingdom
Current Conditions -  °F | °C
As of 1:50 PM on Saturday 01 Nov 2014 (Local Time) from EGHH Reporting Station
Scattered Clouds Scattered Clouds  
Wind Chill: 61°   Ceiling: Unl
Heat Index: 61°   Visibility: 6mi
Dew Point: 50°   Wind: 16mph
Humidity: 68%   Direction: 230°SW
Pressure: 30"   Gusts: NA
Location:  50.7°N, 2.24°W
Report Text: EGHH 011350Z 23014KT 9999 SCT027 16/10 Q1016
Loading
Personal Weather Stations






























Interactive Weather Map New forecast layout! Learn more

10-Day Weather Forecast

Advertisements
Track Severe Weather on mobile